createdAt,value
2024-02-24T00:00:34.737Z,6.90
2024-02-24T00:05:46.451Z,6.90
2024-02-24T00:11:16.356Z,6.90
2024-02-24T00:16:12.517Z,6.90
2024-02-24T00:21:20.877Z,6.90
2024-02-24T00:26:32.142Z,6.90
2024-02-24T00:31:41.438Z,6.90
2024-02-24T00:36:50.229Z,6.90
2024-02-24T00:42:01.509Z,6.80
2024-02-24T00:47:15.374Z,6.80
2024-02-24T00:52:22.872Z,6.90
2024-02-24T00:57:33.454Z,6.90
2024-02-24T01:02:43.829Z,6.80
2024-02-24T01:08:12.205Z,6.80
2024-02-24T01:13:21.612Z,6.80
2024-02-24T01:18:31.968Z,6.80
2024-02-24T01:23:41.135Z,6.70
2024-02-24T01:28:52.282Z,6.70
2024-02-24T01:34:04.356Z,6.60
2024-02-24T01:39:15.456Z,6.70
2024-02-24T01:44:32.625Z,6.70
2024-02-24T01:49:43.201Z,6.70
2024-02-24T01:54:54.378Z,6.70
2024-02-24T02:00:05.626Z,6.70
2024-02-24T02:05:19.109Z,6.60
2024-02-24T02:10:28.205Z,6.60
2024-02-24T02:15:39.083Z,6.60
2024-02-24T02:20:51.424Z,6.60
2024-02-24T02:26:11.040Z,6.70
2024-02-24T02:31:22.827Z,6.70
2024-02-24T02:36:36.682Z,6.70
2024-02-24T02:41:47.088Z,6.70
2024-02-24T02:46:58.541Z,6.70
2024-02-24T02:52:08.903Z,6.60
2024-02-24T02:57:20.949Z,6.70
2024-02-24T03:02:35.544Z,6.60
2024-02-24T03:08:10.560Z,6.60
2024-02-24T03:13:35.993Z,6.60
2024-02-24T03:18:58.394Z,6.70
2024-02-24T03:24:07.287Z,6.70
2024-02-24T03:29:23.295Z,6.70
2024-02-24T03:34:54.537Z,6.70
2024-02-24T03:40:03.440Z,6.70
2024-02-24T03:45:12.213Z,6.70
2024-02-24T03:50:41.769Z,6.70
2024-02-24T03:56:09.409Z,6.70
2024-02-24T04:01:16.616Z,6.70
2024-02-24T04:06:28.538Z,6.80
2024-02-24T04:11:40.001Z,6.80
2024-02-24T04:16:49.776Z,6.80
2024-02-24T04:22:06.557Z,6.90
2024-02-24T04:27:16.884Z,6.90
2024-02-24T04:32:31.978Z,6.90
2024-02-24T04:38:00.971Z,7.00
2024-02-24T04:43:08.331Z,7.10
2024-02-24T04:48:23.328Z,7.10
2024-02-24T04:53:38.769Z,7.10
2024-02-24T04:59:08.220Z,7.10
2024-02-24T05:04:18.105Z,7.20
2024-02-24T05:09:24.707Z,7.20
2024-02-24T05:14:48.919Z,7.20
2024-02-24T05:20:00.781Z,7.20
2024-02-24T05:25:12.874Z,7.20
2024-02-24T05:30:23.938Z,7.30
2024-02-24T05:35:33.534Z,7.30
2024-02-24T05:40:55.853Z,7.50
2024-02-24T05:46:09.612Z,7.80
2024-02-24T05:51:26.409Z,7.90
2024-02-24T05:56:39.792Z,8.00
2024-02-24T06:01:53.925Z,8.10
2024-02-24T06:07:03.557Z,8.10
2024-02-24T06:12:24.539Z,8.20
2024-02-24T06:17:33.903Z,8.10
2024-02-24T06:22:42.687Z,8.10
2024-02-24T06:27:57.602Z,8.10
2024-02-24T06:38:40.836Z,8.10
2024-02-24T06:43:59.144Z,8.10
2024-02-24T06:49:18.276Z,8.20
2024-02-24T06:54:32.704Z,8.20
2024-02-24T06:59:43.190Z,8.20
2024-02-24T07:04:57.984Z,8.30
2024-02-24T07:16:30.951Z,7.60
2024-02-24T07:27:23.189Z,7.20
2024-02-24T07:32:34.975Z,7.00
2024-02-24T07:38:03.801Z,6.90
2024-02-24T07:43:21.809Z,6.70
2024-02-24T07:48:34.619Z,6.50
2024-02-24T07:53:43.841Z,6.40
2024-02-24T07:59:27.204Z,6.30
2024-02-24T08:04:16.201Z,6.20
2024-02-24T08:09:22.044Z,6.20
2024-02-24T08:14:27.803Z,6.10
2024-02-24T08:19:38.447Z,6.10
2024-02-24T08:24:44.667Z,6.10
2024-02-24T08:29:53.216Z,6.10
2024-02-24T08:35:10.916Z,6.00
2024-02-24T08:40:29.563Z,6.10
2024-02-24T08:45:35.275Z,6.00
2024-02-24T08:50:42.247Z,5.90
2024-02-24T08:55:48.247Z,5.80
2024-02-24T09:00:55.575Z,5.80
2024-02-24T09:06:07.017Z,5.80
2024-02-24T09:11:17.571Z,5.70
2024-02-24T09:16:23.451Z,5.70
2024-02-24T09:21:33.486Z,5.70
2024-02-24T09:26:42.932Z,5.70
2024-02-24T09:32:14.866Z,6.00
2024-02-24T09:37:35.452Z,6.10
2024-02-24T09:42:47.691Z,6.00
2024-02-24T09:48:01.289Z,6.10
2024-02-24T09:53:08.666Z,6.30
2024-02-24T09:58:17.784Z,6.70
2024-02-24T10:03:28.079Z,6.90
2024-02-24T10:08:39.607Z,7.00
2024-02-24T10:13:47.469Z,7.00
2024-02-24T10:24:26.865Z,7.00
2024-02-24T10:29:35.027Z,7.10
2024-02-24T10:34:48.710Z,7.20
2024-02-24T10:40:02.521Z,7.10
2024-02-24T10:45:14.302Z,7.10
2024-02-24T10:50:19.908Z,7.10
2024-02-24T10:55:30.014Z,7.30
2024-02-24T11:00:39.161Z,7.70
2024-02-24T11:05:52.725Z,8.30
2024-02-24T11:11:01.225Z,9.10
2024-02-24T11:16:09.984Z,9.60
2024-02-24T11:21:15.671Z,10.20
2024-02-24T11:26:32.902Z,10.40
2024-02-24T11:31:40.965Z,10.30
2024-02-24T11:36:52.288Z,10.70
2024-02-24T11:41:59.528Z,11.00
2024-02-24T11:47:05.247Z,11.50
2024-02-24T11:52:10.705Z,11.50
2024-02-24T11:57:19.058Z,10.70
2024-02-24T12:02:24.509Z,10.40
2024-02-24T12:07:30.213Z,10.60
2024-02-24T12:12:35.701Z,10.60
2024-02-24T12:17:46.028Z,10.60
2024-02-24T12:22:52.028Z,10.90
2024-02-24T12:27:57.563Z,11.00
2024-02-24T12:33:04.164Z,11.20
2024-02-24T12:38:13.165Z,11.20
2024-02-24T12:43:18.653Z,10.70
2024-02-24T12:48:24.260Z,10.70
2024-02-24T12:53:30.307Z,11.30
2024-02-24T12:58:36.003Z,11.40
2024-02-24T13:03:44.048Z,11.30
2024-02-24T13:08:53.433Z,11.30
2024-02-24T13:14:05.346Z,11.00
2024-02-24T13:19:30.820Z,10.60
2024-02-24T13:24:41.577Z,10.50
2024-02-24T13:29:54.028Z,10.60
2024-02-24T13:35:00.080Z,10.50
2024-02-24T13:40:06.413Z,10.50
2024-02-24T13:45:11.975Z,10.40
2024-02-24T13:50:19.075Z,10.70
2024-02-24T13:55:27.749Z,10.60
2024-02-24T14:00:33.267Z,10.80
2024-02-24T14:05:42.604Z,10.70
2024-02-24T14:10:49.301Z,10.50
2024-02-24T14:15:55.522Z,10.30
2024-02-24T14:21:02.659Z,10.20
2024-02-24T14:26:11.764Z,10.30
2024-02-24T14:31:21.133Z,10.00
2024-02-24T14:36:26.621Z,9.90
2024-02-24T14:41:33.630Z,9.70
2024-02-24T14:46:47.604Z,9.70
2024-02-24T14:51:54.601Z,9.80
2024-02-24T14:57:00.053Z,9.70
2024-02-24T15:02:06.107Z,9.70
2024-02-24T15:07:11.562Z,9.70
2024-02-24T15:12:17.018Z,9.70
2024-02-24T15:17:23.477Z,9.60
2024-02-24T15:22:28.962Z,9.50
2024-02-24T15:27:34.385Z,9.40
2024-02-24T15:32:41.747Z,9.40
2024-02-24T15:43:23.384Z,9.20
2024-02-24T15:48:27.288Z,9.10
2024-02-24T15:53:37.503Z,9.00
2024-02-24T15:58:51.501Z,8.80
2024-02-24T16:04:04.977Z,8.70
2024-02-24T16:09:12.105Z,8.50
2024-02-24T16:14:25.453Z,8.40
2024-02-24T16:19:39.441Z,8.20
2024-02-24T16:24:47.854Z,8.00
2024-02-24T16:30:02.317Z,7.90
2024-02-24T16:35:13.063Z,7.80
2024-02-24T16:40:24.016Z,7.60
2024-02-24T16:45:32.619Z,7.50
2024-02-24T16:50:42.850Z,7.40
2024-02-24T16:55:51.443Z,7.20
2024-02-24T17:01:02.017Z,7.10
2024-02-24T17:06:11.477Z,7.00
2024-02-24T17:11:22.260Z,6.80
2024-02-24T17:16:31.970Z,6.70
2024-02-24T17:21:39.388Z,6.70
2024-02-24T17:26:45.455Z,6.70
2024-02-24T17:31:52.223Z,6.60
2024-02-24T17:37:01.303Z,6.50
2024-02-24T17:42:12.456Z,6.50
2024-02-24T17:47:18.348Z,6.40
2024-02-24T17:52:25.004Z,6.30
2024-02-24T17:57:30.616Z,6.20
2024-02-24T18:02:36.648Z,6.10
2024-02-24T18:07:42.162Z,6.00
2024-02-24T18:12:48.121Z,5.90
2024-02-24T18:17:53.812Z,5.90
2024-02-24T18:22:59.328Z,5.90
2024-02-24T18:28:04.774Z,5.80
2024-02-24T18:39:16.265Z,5.70
2024-02-24T18:44:35.333Z,5.70
2024-02-24T18:49:43.803Z,5.60
2024-02-24T18:54:51.990Z,5.60
2024-02-24T19:00:03.248Z,5.60
2024-02-24T19:05:09.370Z,5.50
2024-02-24T19:10:14.888Z,5.40
2024-02-24T19:15:23.014Z,5.30
2024-02-24T19:20:29.094Z,5.30
2024-02-24T19:25:34.526Z,5.30
2024-02-24T19:30:40.002Z,5.30
2024-02-24T19:35:45.600Z,5.20
2024-02-24T19:40:51.493Z,5.20
2024-02-24T19:45:58.506Z,5.20
2024-02-24T19:51:05.550Z,5.10
2024-02-24T19:56:11.059Z,5.10
2024-02-24T20:01:16.510Z,5.00
2024-02-24T20:06:22.169Z,4.90
2024-02-24T20:11:27.947Z,4.80
2024-02-24T20:16:33.558Z,4.70
2024-02-24T20:21:39.584Z,4.70
2024-02-24T20:26:47.983Z,4.90
2024-02-24T20:31:54.693Z,4.90
2024-02-24T20:37:04.775Z,5.00
2024-02-24T20:42:10.354Z,4.90
2024-02-24T20:47:15.799Z,4.90
2024-02-24T20:52:22.773Z,4.90
2024-02-24T20:57:28.229Z,4.90
2024-02-24T21:02:33.944Z,5.00
2024-02-24T21:07:39.508Z,5.00
2024-02-24T21:12:44.917Z,5.00
2024-02-24T21:17:50.455Z,5.00
2024-02-24T21:22:55.885Z,5.10
2024-02-24T21:28:03.893Z,5.10
2024-02-24T21:33:09.293Z,5.00
2024-02-24T21:38:14.731Z,5.00
2024-02-24T21:43:21.078Z,5.00
2024-02-24T21:48:26.648Z,4.90
2024-02-24T21:53:32.346Z,4.80
2024-02-24T21:58:38.989Z,4.70
2024-02-24T22:03:49.142Z,4.60
2024-02-24T22:08:59.686Z,4.60
2024-02-24T22:14:13.653Z,4.50
2024-02-24T22:19:15.750Z,4.40
2024-02-24T22:24:24.630Z,4.30
2024-02-24T22:29:30.237Z,4.20
2024-02-24T22:34:44.990Z,4.20
2024-02-24T22:39:55.402Z,4.20
2024-02-24T22:45:06.235Z,4.10
2024-02-24T22:50:23.639Z,4.00
2024-02-24T22:55:33.750Z,4.00
2024-02-24T23:00:45.877Z,3.90
2024-02-24T23:06:04.773Z,3.90
2024-02-24T23:11:22.224Z,3.80
2024-02-24T23:16:33.329Z,3.70
2024-02-24T23:21:44.479Z,3.70
2024-02-24T23:26:54.740Z,3.60
2024-02-24T23:32:02.230Z,3.50
2024-02-24T23:37:12.117Z,3.40
2024-02-24T23:42:23.934Z,3.40
2024-02-24T23:47:50.172Z,3.30
2024-02-24T23:53:00.252Z,3.30
2024-02-24T23:58:15.429Z,3.20
